Current Weather

Somerset

Somerville, New Jersey (KSMQ)

Report from: Friday, February 23, 2024 12:53 PM EST
Current time: Friday, February 23, 2024 2:07 PM EST

Nearby weather – Weather history – Daily summaries
Weather forecast

Temperature8.3°C (46.9°F)
Wind chill7.7°C (45.8°F)
Dew point3.9°C (39.0°F)
Winds 3 kts (1.5 m/s, 3.5 mph) Vrb
Winds variableWinds variable
Visibility10 mi. (16.1 km)
Clouds Ceiling: Overcast 4,300 ft. (1,311 m)
Altimeter29.48 in.Hg (998 mB)
Relative humidity74 %
Density altitude-171 ft. (-52 m)
Sea-level pressure99.8 kPa (998 mB, 29.48 in.Hg)
Max temp last 6 hours8.3°C (46.9°F)
Min temp last 6 hours2.8°C (37.0°F)
Remarks Fully automated report
Automated weather observing station with precipitation discriminator
Pressure falling more slowly
Flight conditions Visual Meteorological Conditions
Raw dataKSMQ 231753Z AUTO VRB03KT 10SM OVC043 08/04 A2948 RMK AO2 SLP982 T00830039 10083 20028 56014
An error has occurred. This application may no longer respond until reloaded. Reload 🗙